CYVQCYEV

Guest
Details From CYVQ - NORMAN WELLS
To CYEV - INUVIK MIKE ZUBKO
Flight Number -
Tags generated
Created
Modified
Stats Distance 243 nm / 450 km
Max Altitude 26,000 ft / 7,925 m
Waypoints 4
Social Downloads 0
Likes 0
Share VATSIM

Download

Looking for another format? Having issues loading an existing format? Contact us
Advertisement - Login to hide

Notes

Basic altitude profile: - Ascent Rate: 2500ft/min - Ascent Speed: 250kts - Cruise Altitude: 35000ft - Cruise Speed: 420kts - Descent Rate: 1500ft/min - Descent Speed: 250kts Options: - Use NATs: yes - Use PACOTS: yes - Use low airways: yes - Use high airways: yes

Route

CYVQ YGH J516 YEV CYEV

ID Type Via Altitude Latitude Longitude Leg Dist Tot Dist Heading (true) Name
O CYVQ APT - 0 ft / 0 m 65.28162˚ -126.79822˚ - 0 nm - NORMAN WELLS
YGH VOR - 26,000 ft / 7,925 m 66.23628˚ -128.62306˚ 72 nm 72 nm 323° / 321° FORT GOOD HOPE VOR-DME
YEV VOR J516 (AWY-HI) 18,000 ft / 5,486 m 68.30806˚ -133.54825˚ 168 nm 241 nm 320° / 315° INUVIK VOR-DME
O CYEV APT - 0 ft / 0 m 68.30379˚ -133.48317˚ 1 nm 243 nm 100° / 100° INUVIK MIKE ZUBKO

Altitude Profile

Advertisement - Login to hide

Weather


0- 5 10 15 20 25 30 35+ Temperature / ° C

Clouds and Precipitation
Forecast for 2017-12-15 18:00 UTC. Updated an hour ago

Ground ~20,000 ft ~40,000 ft Winds

CYVQ

Details ICAO CYVQ (YVQ)
Name NORMAN WELLS
Region Canada
Timezone America/Yellowknife (UTC-7.0)
Stats Elevation 238 ft / 73 m (AMSL)
Location 65.281616° -126.798222°
Runways 1
Magnetic Variation 21.031° E

METAR

CYVQ 151800Z 28013KT 10SM -SN FEW010 BKN024 OVC078 M10/M12 A2968 RMK ST1SC6AC1 SLP059

Decode

TAF

TAF CYVQ 151739Z 1518/1606 29010KT P6SM FEW010 BKN030 OVC080 TEMPO 1518/1606 4SM -SN BKN010 OVC030 BECMG 1600/1602 28005KT RMK NXT FCST BY 160000Z

Decode

Departure Runways

ID Width Length Bearing (true) Bearing (mag) Surface Threshold Offset Overrun Length
09 150 ft / 46 m 5,977 ft / 1,822 m 118.74° 97.71° Asphalt 0 ft / 0 m 0 ft / 0 m
27 150 ft / 46 m 5,977 ft / 1,822 m 298.78° 277.75° Asphalt 0 ft / 0 m 0 ft / 0 m

CYEV

Details ICAO CYEV (YEV)
Name INUVIK MIKE ZUBKO
Region Canada
Timezone America/Inuvik (UTC-7.0)
Stats Elevation 224 ft / 68 m (AMSL)
Location 68.303792° -133.483167°
Runways 1
Magnetic Variation 21.598° E

METAR

CYEV 151800Z 27003KT 240V300 5SM IC -SN OVC004 M13/M15 A2975 RMK ST8 FROIN SLP083

Decode

TAF

TAF CYEV 151238Z 1513/1601 30005KT 2SM -SN BR OVC004 TEMPO 1513/1519 P6SM -SN OVC010 FM151900 30005KT P6SM -SN OVC006 TEMPO 1519/1601 P6SM NSW OVC012 RMK NXT FCST BY 151900Z

Decode

Destination Runways

ID Width Length Bearing (true) Bearing (mag) Surface Threshold Offset Overrun Length
06 150 ft / 46 m 5,982 ft / 1,823 m 85.80° 64.20° Asphalt 0 ft / 0 m 0 ft / 0 m
24 150 ft / 46 m 5,982 ft / 1,823 m 265.84° 244.24° Asphalt 0 ft / 0 m 0 ft / 0 m

Popular Alternatives